Time;durP1;ratioP1;P1;durP2;ratioP2;P2;SDS_P1;SDS_P2;PMS_P1;PMS_P2;Temp;Humidity;BMP_temperature;BMP_pressure;BME280_temperature;BME280_humidity;BME280_pressure;Samples;Min_cycle;Max_cycle;Signal;HPM_P1;HPM_P2
2024/01/06 00:03:26;;;;;;;17.27;8.23;;;;;;;;;;21006514;28;20207;-69
2024/01/06 00:13:29;;;;;;;16.20;8.37;;;;;;;;;;21005123;28;20209;-69
2024/01/06 00:23:31;;;;;;;18.83;8.20;;;;;;;;;;21004042;28;20309;-69
2024/01/06 00:33:33;;;;;;;18.63;7.93;;;;;;;;;;21003750;28;20247;-69
2024/01/06 00:43:36;;;;;;;19.17;8.40;;;;;;;;;;21003223;28;20242;-69
2024/01/06 00:53:38;;;;;;;9.97;6.50;;;;;;;;;;21001767;28;20324;-69
2024/01/06 01:10:31;;;;;;;11.30;6.47;;;;;;;;;;21068160;27;21113;-70
2024/01/06 01:20:33;;;;;;;11.70;6.50;;;;;;;;;;21067281;28;20303;-70
2024/01/06 01:30:35;;;;;;;9.77;5.47;;;;;;;;;;21066898;28;20248;-70
2024/01/06 01:40:38;;;;;;;8.80;5.73;;;;;;;;;;21065612;28;20209;-70
2024/01/06 01:55:14;;;;;;;9.60;5.00;;;;;;;;;;21068079;27;20556;-72
2024/01/06 02:05:16;;;;;;;7.87;4.40;;;;;;;;;;21066872;28;20647;-68
2024/01/06 02:15:19;;;;;;;10.73;4.60;;;5.90;99.90;;;;;;21067029;28;20572;-69
2024/01/06 02:25:21;;;;;;;7.77;4.67;;;;;;;;;;21043167;28;20209;-69
2024/01/06 02:35:23;;;;;;;7.17;4.47;;;;;;;;;;21038656;28;20212;-69
2024/01/06 02:45:25;;;;;;;10.73;5.63;;;;;;;;;;21047845;28;20246;-68
2024/01/06 02:55:27;;;;;;;7.47;4.43;;;;;;;;;;21063403;28;20215;-71
2024/01/06 03:05:29;;;;;;;12.73;6.57;;;;;;;;;;21012985;28;20204;-69
2024/01/06 03:15:32;;;;;;;16.83;6.10;;;;;;;;;;21006343;28;20310;-69
2024/01/06 03:25:34;;;;;;;9.80;4.30;;;;;;;;;;20991054;28;20224;-69
2024/01/06 03:35:36;;;;;;;13.73;5.03;;;;;;;;;;20950118;28;20207;-69
2024/01/06 03:45:38;;;;;;;7.60;4.53;;;;;;;;;;20921263;28;20716;-69
2024/01/06 04:01:24;;;;;;;11.20;4.93;;;;;;;;;;21068350;28;20565;-71
2024/01/06 04:11:26;;;;;;;11.47;4.53;;;;;;;;;;21067151;28;20330;-71
2024/01/06 04:21:28;;;;;;;9.33;5.10;;;;;;;;;;21065790;28;20662;-71
2024/01/06 04:31:30;;;;;;;10.27;4.47;;;;;;;;;;21054105;28;20671;-71
2024/01/06 04:41:33;;;;;;;9.33;5.23;;;;;;;;;;20981132;28;20217;-71
2024/01/06 04:51:35;;;;;;;11.27;5.13;;;;;;;;;;20984880;28;20212;-71
2024/01/06 05:10:44;;;;;;;15.23;6.63;;;;;;;;;;20984749;28;20578;-71
2024/01/06 05:20:50;;;;;;;10.13;5.03;;;;;;;;;;20983600;28;20214;-71
2024/01/06 05:30:52;;;;;;;9.37;5.80;;;;;;;;;;20983128;28;20205;-71
2024/01/06 05:40:55;;;;;;;11.70;4.13;;;;;;;;;;20981842;28;20674;-72
2024/01/06 05:50:57;;;;;;;6.20;3.10;;;;;;;;;;20981106;28;20209;-71
2024/01/06 06:00:59;;;;;;;8.23;4.27;;;;;;;;;;20979206;28;20297;-71
2024/01/06 06:11:01;;;;;;;7.93;4.20;;;;;;;;;;20979284;28;20742;-71
2024/01/06 06:21:04;;;;;;;4.97;3.60;;;;;;;;;;20929363;28;20206;-71
2024/01/06 06:31:07;;;;;;;8.77;4.37;;;6.40;99.90;;;;;;20923590;28;20203;-71
2024/01/06 06:41:09;;;;;;;7.80;3.90;;;;;;;;;;20922135;28;20275;-71
2024/01/06 06:51:11;;;;;;;4.60;3.13;;;;;;;;;;20921447;28;20301;-72
2024/01/06 07:01:16;;;;;;;6.70;3.27;;;6.60;99.90;;;;;;20916167;28;20707;-71
2024/01/06 07:11:19;;;;;;;5.73;3.50;;;;;;;;;;20860865;28;20210;-72
2024/01/06 07:21:23;;;;;;;4.87;3.33;;;;;;;;;;20871751;28;20773;-71
2024/01/06 07:31:25;;;;;;;4.50;3.07;;;;;;;;;;20877269;28;20217;-73
2024/01/06 07:43:51;;;;;;;9.60;4.10;;;;;;;;;;20940890;28;20581;-70
2024/01/06 07:53:53;;;;;;;9.73;3.40;;;;;;;;;;20825620;28;20218;-69
2024/01/06 08:03:56;;;;;;;7.90;4.30;;;;;;;;;;20876983;28;20666;-67
2024/01/06 08:13:58;;;;;;;9.13;4.70;;;;;;;;;;20878217;28;20562;-72
2024/01/06 08:24:00;;;;;;;7.73;4.97;;;;;;;;;;20893091;28;20223;-72
2024/01/06 08:34:02;;;;;;;7.67;4.50;;;;;;;;;;20864399;28;20206;-69
2024/01/06 08:44:05;;;;;;;8.60;4.17;;;;;;;;;;20877699;28;20205;-71
2024/01/06 08:54:07;;;;;;;6.00;4.47;;;;;;;;;;20794215;28;20212;-70
2024/01/06 09:04:11;;;;;;;10.60;5.43;;;;;;;;;;20801704;28;20208;-70
2024/01/06 09:14:13;;;;;;;11.40;6.10;;;;;;;;;;20834520;28;20284;-69
2024/01/06 09:24:15;;;;;;;12.90;5.90;;;;;;;;;;20834432;28;20591;-69
2024/01/06 09:34:17;;;;;;;12.33;5.53;;;;;;;;;;20835893;28;20239;-69
2024/01/06 09:44:20;;;;;;;10.50;5.07;;;;;;;;;;20904699;28;20209;-69
2024/01/06 09:54:26;;;;;;;12.30;5.03;;;7.70;99.90;;;;;;20918838;28;20231;-69
2024/01/06 10:04:28;;;;;;;8.87;5.40;;;;;;;;;;20917062;28;20297;-69
2024/01/06 10:14:30;;;;;;;9.67;5.40;;;;;;;;;;20915943;28;20277;-69
2024/01/06 10:31:04;;;;;;;9.33;5.80;;;;;;;;;;20984633;28;20569;-70
2024/01/06 10:41:07;;;;;;;9.87;5.00;;;;;;;;;;20982946;28;20206;-71
2024/01/06 10:51:10;;;;;;;8.33;5.37;;;;;;;;;;20982183;28;20206;-70
2024/01/06 11:01:55;;;;;;;9.93;5.67;;;7.70;98.60;;;;;;21067718;28;20560;-71
2024/01/06 11:11:58;;;;;;;9.87;5.10;;;;;;;;;;21066761;28;20659;-71
2024/01/06 11:22:30;;;;;;;8.37;4.90;;;8.60;98.80;;;;;;21066118;28;20234;-71
2024/01/06 11:32:36;;;;;;;8.23;4.77;;;6.20;97.40;;;;;;21065780;28;20229;-71
2024/01/06 11:42:38;;;;;;;10.03;6.23;;;;;;;;;;21065109;28;20218;-71
2024/01/06 11:52:40;;;;;;;5.97;3.67;;;;;;;;;;21064372;28;20284;-71
2024/01/06 12:02:42;;;;;;;7.37;4.03;;;;;;;;;;21063240;28;20667;-71
2024/01/06 12:13:01;;;;;;;5.97;3.10;;;8.80;97.00;;;;;;21009458;28;20236;-70
2024/01/06 12:23:05;;;;;;;9.23;4.30;;;;;;;;;;21005779;28;20209;-70
2024/01/06 12:33:08;;;;;;;8.90;4.23;;;;;;;;;;21004893;28;20272;-70
2024/01/06 12:43:10;;;;;;;6.73;3.73;;;;;;;;;;21004566;28;20213;-71
2024/01/06 12:53:14;;;;;;;6.57;3.60;;;;;;;;;;21003379;28;20242;-70
2024/01/06 13:03:17;;;;;;;7.43;3.50;;;;;;;;;;21002512;28;20205;-69
2024/01/06 13:13:19;;;;;;;4.97;3.50;;;;;;;;;;21002146;28;20270;-68
2024/01/06 13:33:36;;;;;;;9.50;4.10;;;;;;;;;;21408919;27;20539;-71
2024/01/06 13:47:45;;;;;;;6.93;3.70;;;;;;;;;;20984788;28;20560;-71
2024/01/06 13:57:48;;;;;;;5.93;3.30;;;;;;;;;;20983651;28;20205;-69
2024/01/06 14:07:51;;;;;;;8.60;3.40;;;;;;;;;;20982888;28;20216;-69
2024/01/06 14:17:53;;;;;;;6.57;4.00;;;;;;;;;;20981695;28;20205;-69
2024/01/06 14:27:56;;;;;;;7.73;3.67;;;;;;;;;;20981206;28;20221;-70
2024/01/06 14:37:58;;;;;;;7.43;3.97;;;;;;;;;;20980645;28;20347;-70
2024/01/06 14:48:00;;;;;;;5.87;3.70;;;;;;;;;;20980023;28;20232;-70
2024/01/06 14:58:03;;;;;;;5.80;3.27;;;;;;;;;;20929927;28;21183;-70
2024/01/06 15:08:06;;;;;;;6.77;3.90;;;;;;;;;;20923082;28;20208;-70
2024/01/06 15:18:09;;;;;;;7.13;3.57;;;;;;;;;;20922043;28;20225;-70
2024/01/06 15:28:12;;;;;;;5.57;3.70;;;;;;;;;;20922115;28;20205;-70
2024/01/06 15:38:14;;;;;;;8.17;3.13;;;;;;;;;;20920695;28;20262;-70
2024/01/06 15:48:17;;;;;;;5.90;4.10;;;;;;;;;;20864820;28;20220;-68
2024/01/06 15:58:21;;;;;;;9.23;3.57;;;;;;;;;;20881073;28;20237;-70
2024/01/06 16:08:23;;;;;;;8.03;4.37;;;;;;;;;;20907712;28;20662;-71
2024/01/06 16:18:26;;;;;;;9.37;5.53;;;;;;;;;;20925507;28;20323;-74
2024/01/06 16:28:28;;;;;;;10.63;4.90;;;;;;;;;;20898822;28;20245;-78
2024/01/06 16:38:34;;;;;;;8.90;5.40;;;;;;;;;;20870090;28;20244;-73
2024/01/06 16:48:36;;;;;;;13.23;6.27;;;;;;;;;;20877853;28;20732;-71
2024/01/06 16:58:38;;;;;;;16.70;9.53;;;;;;;;;;20864298;28;20286;-74
2024/01/06 17:08:40;;;;;;;15.63;9.33;;;;;;;;;;20828056;28;20234;-73
2024/01/06 17:18:43;;;;;;;17.37;11.43;;;8.20;97.50;;;;;;20881289;28;20251;-71
2024/01/06 17:28:46;;;;;;;17.83;9.50;;;;;;;;;;20859286;28;20225;-70
2024/01/06 17:38:49;;;;;;;20.03;11.53;;;;;;;;;;20827409;28;20669;-71
2024/01/06 17:48:52;;;;;;;25.20;13.70;;;8.00;98.20;;;;;;20827264;28;20571;-70
2024/01/06 17:59:01;;;;;;;20.97;10.73;;;;;;;;;;20827092;28;20264;-70
2024/01/06 18:09:05;;;;;;;22.80;11.73;;;;;;;;;;20826582;28;20204;-72
2024/01/06 18:19:08;;;;;;;34.50;18.17;;;8.00;99.10;;;;;;20877329;28;20266;-72
2024/01/06 18:29:12;;;;;;;38.77;22.37;;;;;;;;;;20962654;28;20208;-70
2024/01/06 18:39:15;;;;;;;32.53;18.60;;;;;;;;;;20882201;28;20598;-73
2024/01/06 18:49:18;;;;;;;22.47;11.57;;;;;;;;;;20850517;28;20295;-70
2024/01/06 18:59:20;;;;;;;17.43;10.53;;;;;;;;;;20855113;28;20263;-70
2024/01/06 19:09:22;;;;;;;19.43;10.60;;;;;;;;;;20840590;28;20512;-69
2024/01/06 19:19:25;;;;;;;23.60;12.93;;;;;;;;;;20879542;28;20289;-69
2024/01/06 19:29:28;;;;;;;23.83;13.50;;;;;;;;;;20912159;28;20207;-70
2024/01/06 19:39:30;;;;;;;21.23;12.30;;;;;;;;;;20921853;28;20571;-70
2024/01/06 19:49:32;;;;;;;19.73;11.47;;;;;;;;;;20908729;28;20669;-69
2024/01/06 19:59:35;;;;;;;20.20;11.37;;;;;;;;;;20913905;28;20327;-71
2024/01/06 20:09:37;;;;;;;17.23;11.27;;;;;;;;;;20878375;28;20201;-70
2024/01/06 20:19:39;;;;;;;22.87;12.63;;;;;;;;;;20876596;28;20233;-70
2024/01/06 20:29:41;;;;;;;29.77;16.97;;;;;;;;;;20869857;28;20203;-70
2024/01/06 20:39:44;;;;;;;25.93;15.33;;;;;;;;;;20866408;28;20361;-70
2024/01/06 20:49:46;;;;;;;31.67;15.63;;;;;;;;;;20873373;28;20208;-69
2024/01/06 20:59:48;;;;;;;28.10;15.80;;;;;;;;;;20867310;28;20236;-69
2024/01/06 21:09:50;;;;;;;23.63;15.07;;;;;;;;;;20865641;28;20209;-70
2024/01/06 21:19:53;;;;;;;25.63;15.10;;;;;;;;;;20870525;28;20263;-70
2024/01/06 21:29:55;;;;;;;29.80;17.90;;;;;;;;;;20865681;28;20199;-71
2024/01/06 21:40:04;;;;;;;26.93;15.10;;;;;;;;;;20864563;28;20328;-71
2024/01/06 21:50:07;;;;;;;24.77;14.97;;;7.60;99.90;;;;;;20868086;28;20208;-70
2024/01/06 22:00:15;;;;;;;27.43;14.73;;;;;;;;;;20866603;28;20279;-70
2024/01/06 22:10:17;;;;;;;23.17;14.47;;;;;;;;;;20880879;28;20204;-69
2024/01/06 22:31:43;;;;;;;23.37;14.20;;;7.50;99.90;;;;;;20889537;28;20209;-72
2024/01/06 22:41:47;;;;;;;22.20;12.77;;;;;;;;;;20843111;28;20671;-72
2024/01/06 22:51:49;;;;;;;19.93;12.77;;;;;;;;;;20864165;28;20205;-73
2024/01/06 23:01:52;;;;;;;18.77;12.80;;;8.60;99.90;;;;;;20910491;28;20572;-72
2024/01/06 23:11:54;;;;;;;22.77;12.03;;;;;;;;;;20841654;28;20213;-72
2024/01/06 23:21:56;;;;;;;25.50;13.83;;;;;;;;;;20863153;28;20249;-72
2024/01/06 23:36:45;;;;;;;17.20;10.40;;;;;;;;;;20984233;28;20558;-73
2024/01/06 23:46:50;;;;;;;18.60;10.47;;;;;;;;;;20981842;28;20266;-72
2024/01/06 23:56:52;;;;;;;16.30;10.80;;;;;;;;;;20980496;28;20686;-73
